Terminal Aerodrome Forecast
Issued by NWS Blacksburg, VA

Home | Current Version | Previous Version | Text Only | Print | Product List | Glossary On
Versions: 1 2 3 4 5 6 7 8 9 10 11 12 13 14 15 16 17 18 19 20 21 22 23 24
000
FTUS41 KRNK 231140
TAFLYH
TAF
KLYH 231140Z 2312/2412 13003KT P6SM SKC
     FM231400 32012G20KT P6SM SKC
     FM231900 31010KT P6SM SKC
     FM240200 VRB02KT P6SM SKC=

USA.gov is the U.S. government's official web portal to all federal, state and local government web resources and services.